createdAt,value
2018-09-27T00:01:08.436Z,9.95
2018-09-27T00:03:36.898Z,9.92
2018-09-27T00:06:06.750Z,9.86
2018-09-27T00:08:35.086Z,9.87
2018-09-27T00:11:03.434Z,9.90
2018-09-27T00:13:31.684Z,9.83
2018-09-27T00:15:59.942Z,9.83
2018-09-27T00:18:28.870Z,9.77
2018-09-27T00:20:59.435Z,9.73
2018-09-27T00:23:28.932Z,9.78
2018-09-27T00:25:57.293Z,9.70
2018-09-27T00:28:25.844Z,9.63
2018-09-27T00:30:54.399Z,9.55
2018-09-27T00:33:22.931Z,9.52
2018-09-27T00:35:51.186Z,9.52
2018-09-27T00:38:19.652Z,9.43
2018-09-27T00:40:48.266Z,9.43
2018-09-27T00:43:16.575Z,9.32
2018-09-27T00:45:45.655Z,9.36
2018-09-27T00:48:16.294Z,9.29
2018-09-27T00:50:45.843Z,9.33
2018-09-27T00:53:14.879Z,9.31
2018-09-27T00:55:43.378Z,9.30
2018-09-27T00:58:12.877Z,9.36
2018-09-27T01:00:42.217Z,9.35
2018-09-27T01:03:10.547Z,9.29
2018-09-27T01:05:38.824Z,9.29
2018-09-27T01:08:07.137Z,9.24
2018-09-27T01:10:36.886Z,9.20
2018-09-27T01:13:05.260Z,9.19
2018-09-27T01:15:33.841Z,9.20
2018-09-27T01:18:02.736Z,9.18
2018-09-27T01:20:31.080Z,9.13
2018-09-27T01:22:59.459Z,9.11
2018-09-27T01:25:27.765Z,9.15
2018-09-27T01:27:56.647Z,9.19
2018-09-27T01:30:25.009Z,9.20
2018-09-27T01:32:53.555Z,9.29
2018-09-27T01:35:22.139Z,9.34
2018-09-27T01:37:50.416Z,9.30
2018-09-27T01:40:18.753Z,9.24
2018-09-27T01:42:47.026Z,9.17
2018-09-27T01:45:15.345Z,9.06
2018-09-27T01:47:43.629Z,8.97
2018-09-27T01:50:11.976Z,8.95
2018-09-27T01:52:40.250Z,8.83
2018-09-27T01:55:08.537Z,8.81
2018-09-27T01:57:36.683Z,8.75
2018-09-27T02:00:05.278Z,8.69
2018-09-27T02:02:33.550Z,8.74
2018-09-27T02:05:02.438Z,8.87
2018-09-27T02:07:31.311Z,8.81
2018-09-27T02:09:59.836Z,8.75
2018-09-27T02:12:28.079Z,8.73
2018-09-27T02:14:56.904Z,8.64
2018-09-27T02:17:26.083Z,8.59
2018-09-27T02:19:54.428Z,8.55
2018-09-27T02:22:23.075Z,8.51
2018-09-27T02:24:52.197Z,8.42
2018-09-27T02:27:20.539Z,8.42
2018-09-27T02:29:48.954Z,8.35
2018-09-27T02:32:17.763Z,8.32
2018-09-27T02:34:46.778Z,8.34
2018-09-27T02:37:16.200Z,8.34
2018-09-27T02:39:44.466Z,8.36
2018-09-27T02:42:12.941Z,8.41
2018-09-27T02:44:41.517Z,8.48
2018-09-27T02:47:10.104Z,8.58
2018-09-27T02:49:38.363Z,8.64
2018-09-27T02:52:07.527Z,8.61
2018-09-27T02:54:36.524Z,8.58
2018-09-27T02:57:04.850Z,8.52
2018-09-27T02:59:33.149Z,8.47
2018-09-27T03:02:02.771Z,8.43
2018-09-27T03:04:31.373Z,8.40
2018-09-27T03:06:59.789Z,8.42
2018-09-27T03:09:28.348Z,8.33
2018-09-27T03:11:56.935Z,8.25
2018-09-27T03:14:26.060Z,8.20
2018-09-27T03:16:54.915Z,8.16
2018-09-27T03:19:23.866Z,8.17
2018-09-27T03:21:52.202Z,8.19
2018-09-27T03:24:21.823Z,8.19
2018-09-27T03:26:51.175Z,8.24
2018-09-27T03:29:20.455Z,8.23
2018-09-27T03:31:49.656Z,8.27
2018-09-27T03:34:18.311Z,8.26
2018-09-27T03:36:46.684Z,8.30
2018-09-27T03:39:15.108Z,8.26
2018-09-27T03:41:43.601Z,8.26
2018-09-27T03:44:12.395Z,8.21
2018-09-27T03:46:40.747Z,8.22
2018-09-27T03:49:09.414Z,8.24
2018-09-27T03:51:38.035Z,8.19
2018-09-27T03:54:06.950Z,8.11
2018-09-27T03:56:35.702Z,8.10
2018-09-27T03:59:05.005Z,8.10
2018-09-27T04:01:33.247Z,8.04
2018-09-27T04:04:01.508Z,8.02
2018-09-27T04:06:30.457Z,7.96
2018-09-27T04:08:59.514Z,7.91
2018-09-27T04:11:27.859Z,7.93
2018-09-27T04:13:56.251Z,8.33
2018-09-27T04:16:25.129Z,8.35
2018-09-27T04:18:53.539Z,8.16
2018-09-27T04:21:23.145Z,8.09
2018-09-27T04:23:52.034Z,8.02
2018-09-27T04:26:20.405Z,8.02
2018-09-27T04:28:48.706Z,8.01
2018-09-27T04:31:17.333Z,7.95
2018-09-27T04:33:45.923Z,7.88
2018-09-27T04:36:14.641Z,7.87
2018-09-27T04:38:43.513Z,7.83
2018-09-27T04:41:11.861Z,7.86
2018-09-27T04:43:40.295Z,7.89
2018-09-27T04:46:09.643Z,7.79
2018-09-27T04:48:38.056Z,7.87
2018-09-27T04:51:06.777Z,7.92
2018-09-27T04:53:36.363Z,7.88
2018-09-27T04:56:04.746Z,8.00
2018-09-27T04:58:33.140Z,8.28
2018-09-27T05:01:01.661Z,8.41
2018-09-27T05:03:30.587Z,8.38
2018-09-27T05:05:59.111Z,8.26
2018-09-27T05:08:27.351Z,8.26
2018-09-27T05:10:55.898Z,8.19
2018-09-27T05:13:24.653Z,8.13
2018-09-27T05:15:52.930Z,8.13
2018-09-27T05:18:21.270Z,8.18
2018-09-27T05:20:49.675Z,8.09
2018-09-27T05:23:18.768Z,8.09
2018-09-27T05:25:47.067Z,8.05
2018-09-27T05:28:15.448Z,8.06
2018-09-27T05:30:43.846Z,8.10
2018-09-27T05:33:12.426Z,8.13
2018-09-27T05:35:41.259Z,8.12
2018-09-27T05:38:09.933Z,8.20
2018-09-27T05:40:38.631Z,8.30
2018-09-27T05:43:07.581Z,8.35
2018-09-27T05:45:36.301Z,8.55
2018-09-27T05:48:04.636Z,8.80
2018-09-27T05:50:33.093Z,8.93
2018-09-27T05:53:02.071Z,8.98
2018-09-27T05:55:31.084Z,8.91
2018-09-27T05:57:59.606Z,8.82
2018-09-27T06:00:28.021Z,8.81
2018-09-27T06:02:56.399Z,8.87
2018-09-27T06:05:25.144Z,8.89
2018-09-27T06:07:53.739Z,8.96
2018-09-27T06:10:24.027Z,9.17
2018-09-27T06:12:52.304Z,9.25
2018-09-27T06:15:20.580Z,9.44
2018-09-27T06:17:49.243Z,9.56
2018-09-27T06:20:18.888Z,9.71
2018-09-27T06:22:47.451Z,9.74
2018-09-27T06:25:15.833Z,9.70
2018-09-27T06:27:44.137Z,9.80
2018-09-27T06:30:12.549Z,10.07
2018-09-27T06:32:41.281Z,10.23
2018-09-27T06:35:10.947Z,10.34
2018-09-27T06:37:40.154Z,10.45
2018-09-27T06:40:08.612Z,10.46
2018-09-27T06:42:37.015Z,10.66
2018-09-27T06:45:06.752Z,10.70
2018-09-27T06:47:35.128Z,10.87
2018-09-27T06:50:03.743Z,10.97
2018-09-27T06:52:32.478Z,10.92
2018-09-27T06:55:00.920Z,11.20
2018-09-27T06:57:29.583Z,11.16
2018-09-27T06:59:58.089Z,11.20
2018-09-27T07:02:27.392Z,11.38
2018-09-27T07:04:55.706Z,11.58
2018-09-27T07:07:24.103Z,11.50
2018-09-27T07:09:52.368Z,11.56
2018-09-27T07:12:21.489Z,11.70
2018-09-27T07:14:49.631Z,11.90
2018-09-27T07:17:18.261Z,12.04
2018-09-27T07:19:46.642Z,12.13
2018-09-27T07:22:15.389Z,12.29
2018-09-27T07:24:43.870Z,12.14
2018-09-27T07:27:12.149Z,12.57
2018-09-27T07:29:40.597Z,12.59
2018-09-27T07:32:08.919Z,12.61
2018-09-27T07:34:37.478Z,12.95
2018-09-27T07:37:06.593Z,12.95
2018-09-27T07:39:34.942Z,13.08
2018-09-27T07:42:04.042Z,13.16
2018-09-27T07:44:32.677Z,13.09
2018-09-27T07:47:07.736Z,13.16
2018-09-27T07:49:36.104Z,13.44
2018-09-27T07:52:04.785Z,13.43
2018-09-27T07:54:33.181Z,13.69
2018-09-27T07:57:01.907Z,13.73
2018-09-27T07:59:30.574Z,13.59
2018-09-27T08:01:58.868Z,13.71
2018-09-27T08:04:29.455Z,14.03
2018-09-27T08:06:58.691Z,14.03
2018-09-27T08:09:27.547Z,14.24
2018-09-27T08:11:56.240Z,14.50
2018-09-27T08:14:24.855Z,14.42
2018-09-27T08:16:53.212Z,14.54
2018-09-27T08:19:22.121Z,14.65
2018-09-27T08:21:53.259Z,14.92
2018-09-27T08:24:22.526Z,14.87
2018-09-27T08:26:52.129Z,14.90
2018-09-27T08:29:20.526Z,15.01
2018-09-27T08:31:48.804Z,15.15
2018-09-27T08:34:18.101Z,15.24
2018-09-27T08:36:46.744Z,15.51
2018-09-27T08:39:14.988Z,15.54
2018-09-27T08:41:43.434Z,15.84
2018-09-27T08:44:12.393Z,15.87
2018-09-27T08:46:41.954Z,16.00
2018-09-27T08:49:12.049Z,15.85
2018-09-27T08:51:40.502Z,15.88
2018-09-27T08:54:10.409Z,16.17
2018-09-27T08:56:39.457Z,16.40
2018-09-27T08:59:08.927Z,16.31
2018-09-27T09:01:38.112Z,16.25
2018-09-27T09:04:07.064Z,16.45
2018-09-27T09:06:35.527Z,16.82
2018-09-27T09:09:10.456Z,16.77
2018-09-27T09:11:38.750Z,17.05
2018-09-27T09:14:07.588Z,17.17
2018-09-27T09:16:39.058Z,17.21
2018-09-27T09:19:07.604Z,17.34
2018-09-27T09:21:36.059Z,17.31
2018-09-27T09:24:06.369Z,17.49
2018-09-27T09:26:37.381Z,17.55
2018-09-27T09:29:06.170Z,17.80
2018-09-27T09:31:34.445Z,17.85
2018-09-27T09:34:04.428Z,18.04
2018-09-27T09:36:32.976Z,18.17
2018-09-27T09:39:01.395Z,18.52
2018-09-27T09:41:29.792Z,18.89
2018-09-27T09:43:58.720Z,18.99
2018-09-27T09:46:27.429Z,19.30
2018-09-27T09:48:56.805Z,19.63
2018-09-27T09:51:25.250Z,18.90
2018-09-27T09:53:56.474Z,19.31
2018-09-27T09:56:26.273Z,19.83
2018-09-27T09:58:55.089Z,19.80
2018-09-27T10:01:24.204Z,19.66
2018-09-27T10:03:53.719Z,19.78
2018-09-27T10:06:22.958Z,20.14
2018-09-27T10:08:51.511Z,20.35
2018-09-27T10:11:21.035Z,20.37
2018-09-27T10:13:49.900Z,20.45
2018-09-27T10:16:18.580Z,20.89
2018-09-27T10:18:48.685Z,21.20
2018-09-27T10:21:19.088Z,21.06
2018-09-27T10:23:50.054Z,20.90
2018-09-27T10:26:19.492Z,21.33
2018-09-27T10:28:48.133Z,21.48
2018-09-27T10:31:16.898Z,21.52
2018-09-27T10:33:45.564Z,21.47
2018-09-27T10:36:14.831Z,22.00
2018-09-27T10:38:46.187Z,22.17
2018-09-27T10:41:15.016Z,22.41
2018-09-27T10:43:43.636Z,22.94
2018-09-27T10:46:12.274Z,23.28
2018-09-27T10:48:40.945Z,23.11
2018-09-27T10:51:09.952Z,23.12
2018-09-27T10:53:40.211Z,23.07
2018-09-27T10:56:09.164Z,23.08
2018-09-27T10:58:37.995Z,23.23
2018-09-27T11:01:06.977Z,23.21
2018-09-27T11:03:35.884Z,23.31
2018-09-27T11:06:04.182Z,23.74
2018-09-27T11:08:33.268Z,23.32
2018-09-27T11:11:02.323Z,23.68
2018-09-27T11:13:31.045Z,23.79
2018-09-27T11:15:59.698Z,23.88
2018-09-27T11:18:28.472Z,24.30
2018-09-27T11:20:56.843Z,24.19
2018-09-27T11:23:25.556Z,24.52
2018-09-27T11:25:54.218Z,24.90
2018-09-27T11:28:22.566Z,24.99
2018-09-27T11:30:56.678Z,24.78
2018-09-27T11:33:26.398Z,24.88
2018-09-27T11:35:54.911Z,24.53
2018-09-27T11:38:23.594Z,24.79
2018-09-27T11:40:52.379Z,24.82
2018-09-27T11:43:21.064Z,25.20
2018-09-27T11:45:49.862Z,25.01
2018-09-27T11:48:19.161Z,24.70
2018-09-27T11:50:49.589Z,25.01
2018-09-27T11:53:20.331Z,25.35
2018-09-27T11:55:49.950Z,24.83
2018-09-27T11:58:20.826Z,24.95
2018-09-27T12:00:55.150Z,24.86
2018-09-27T12:03:28.623Z,25.16
2018-09-27T12:05:58.303Z,24.85
2018-09-27T12:08:30.011Z,25.47
2018-09-27T12:11:01.171Z,25.51
2018-09-27T12:13:30.749Z,25.18
2018-09-27T12:16:01.310Z,25.54
2018-09-27T12:18:31.412Z,25.33
2018-09-27T12:20:59.969Z,24.76
2018-09-27T12:23:28.587Z,25.00
2018-09-27T12:25:57.152Z,24.89
2018-09-27T12:28:26.240Z,24.90
2018-09-27T12:30:54.734Z,25.18
2018-09-27T12:33:23.789Z,25.11
2018-09-27T12:35:54.257Z,25.38
2018-09-27T12:38:22.649Z,25.27
2018-09-27T12:40:50.873Z,25.78
2018-09-27T12:43:19.714Z,25.73
2018-09-27T12:45:48.378Z,26.10
2018-09-27T12:48:17.607Z,25.59
2018-09-27T12:50:51.886Z,25.89
2018-09-27T12:53:20.264Z,25.92
2018-09-27T12:55:49.552Z,26.35
2018-09-27T12:58:18.879Z,26.47
2018-09-27T13:00:49.083Z,26.84
2018-09-27T13:03:18.649Z,27.06
2018-09-27T13:05:47.784Z,27.46
2018-09-27T13:08:16.024Z,28.69
2018-09-27T13:10:44.568Z,29.74
2018-09-27T13:13:13.304Z,30.89
2018-09-27T13:15:42.352Z,32.00
2018-09-27T13:18:11.480Z,32.53
2018-09-27T13:20:39.964Z,32.99
2018-09-27T13:23:08.436Z,33.57
2018-09-27T13:25:36.991Z,33.49
2018-09-27T13:28:06.357Z,34.51
2018-09-27T13:30:34.803Z,35.96
2018-09-27T13:33:03.141Z,35.89
2018-09-27T13:35:31.663Z,36.03
2018-09-27T13:38:17.617Z,35.70
2018-09-27T13:40:52.676Z,36.93
2018-09-27T13:43:21.046Z,36.83
2018-09-27T13:45:49.628Z,35.78
2018-09-27T13:48:18.841Z,36.77
2018-09-27T13:50:47.950Z,38.93
2018-09-27T13:53:16.322Z,37.16
2018-09-27T13:55:45.897Z,37.42
2018-09-27T13:58:15.528Z,37.11
2018-09-27T14:00:44.511Z,37.38
2018-09-27T14:03:13.267Z,39.78
2018-09-27T14:05:42.122Z,38.46
2018-09-27T14:08:11.320Z,39.78
2018-09-27T14:10:39.992Z,40.07
2018-09-27T14:13:08.369Z,37.61
2018-09-27T14:15:36.604Z,38.25
2018-09-27T14:18:05.744Z,38.81
2018-09-27T14:20:34.233Z,41.52
2018-09-27T14:23:02.668Z,42.36
2018-09-27T14:25:32.738Z,41.46
2018-09-27T14:28:02.121Z,39.28
2018-09-27T14:30:31.986Z,40.36
2018-09-27T14:33:00.276Z,40.85
2018-09-27T14:35:30.478Z,39.62
2018-09-27T14:37:59.489Z,39.45
2018-09-27T14:40:30.763Z,40.51
2018-09-27T14:42:59.255Z,39.95
2018-09-27T14:45:27.710Z,40.02
2018-09-27T14:47:57.139Z,40.30
2018-09-27T14:50:27.168Z,40.44
2018-09-27T14:52:56.508Z,41.43
2018-09-27T14:55:25.449Z,41.08
2018-09-27T14:57:54.583Z,38.57
2018-09-27T15:00:23.672Z,40.39
2018-09-27T15:02:53.016Z,41.00
2018-09-27T15:05:22.407Z,41.38
2018-09-27T15:07:51.165Z,41.61
2018-09-27T15:10:21.161Z,41.71
2018-09-27T15:12:49.465Z,41.00
2018-09-27T15:15:17.964Z,41.71
2018-09-27T15:17:46.888Z,40.71
2018-09-27T15:20:16.648Z,41.05
2018-09-27T15:22:45.706Z,41.87
2018-09-27T15:25:14.414Z,40.37
2018-09-27T15:27:43.500Z,39.15
2018-09-27T15:30:12.154Z,39.32
2018-09-27T15:32:40.460Z,38.18
2018-09-27T15:35:09.339Z,37.82
2018-09-27T15:37:37.937Z,37.46
2018-09-27T15:40:06.337Z,40.28
2018-09-27T15:42:34.807Z,40.03
2018-09-27T15:45:03.647Z,40.80
2018-09-27T15:47:31.906Z,39.64
2018-09-27T15:50:00.433Z,39.11
2018-09-27T15:52:28.650Z,40.00
2018-09-27T15:54:56.850Z,39.52
2018-09-27T15:57:25.540Z,37.68
2018-09-27T15:59:54.314Z,38.33
2018-09-27T16:02:23.019Z,39.26
2018-09-27T16:04:51.698Z,39.36
2018-09-27T16:07:20.359Z,39.56
2018-09-27T16:09:48.640Z,37.81
2018-09-27T16:12:17.669Z,35.05
2018-09-27T16:14:46.361Z,31.54
2018-09-27T16:17:14.865Z,29.86
2018-09-27T16:19:43.614Z,28.32
2018-09-27T16:22:11.915Z,27.21
2018-09-27T16:24:40.779Z,26.51
2018-09-27T16:27:11.923Z,25.70
2018-09-27T16:29:40.519Z,25.41
2018-09-27T16:32:09.521Z,24.98
2018-09-27T16:34:37.832Z,24.28
2018-09-27T16:37:07.032Z,23.94
2018-09-27T16:39:35.328Z,23.65
2018-09-27T16:42:03.610Z,23.36
2018-09-27T16:44:32.095Z,22.94
2018-09-27T16:47:00.290Z,23.01
2018-09-27T16:49:28.747Z,22.65
2018-09-27T16:51:57.433Z,22.26
2018-09-27T16:54:26.124Z,22.14
2018-09-27T16:56:54.765Z,21.93
2018-09-27T16:59:23.226Z,22.01
2018-09-27T17:01:51.648Z,21.96
2018-09-27T17:04:20.090Z,21.30
2018-09-27T17:06:48.416Z,21.08
2018-09-27T17:09:17.161Z,21.19
2018-09-27T17:11:45.435Z,21.14
2018-09-27T17:14:13.821Z,21.18
2018-09-27T17:16:42.439Z,21.13
2018-09-27T17:19:11.311Z,21.18
2018-09-27T17:21:39.608Z,21.12
2018-09-27T17:24:08.097Z,21.01
2018-09-27T17:26:37.337Z,20.79
2018-09-27T17:29:05.784Z,20.76
2018-09-27T17:31:34.383Z,20.56
2018-09-27T17:34:02.642Z,20.37
2018-09-27T17:36:32.284Z,20.16
2018-09-27T17:39:00.694Z,19.97
2018-09-27T17:41:29.298Z,19.77
2018-09-27T17:43:58.102Z,19.76
2018-09-27T17:46:26.513Z,19.70
2018-09-27T17:48:55.010Z,19.55
2018-09-27T17:51:24.965Z,19.50
2018-09-27T17:53:53.413Z,19.23
2018-09-27T17:56:23.056Z,19.04
2018-09-27T17:58:51.541Z,18.96
2018-09-27T18:01:20.072Z,18.75
2018-09-27T18:03:48.655Z,18.65
2018-09-27T18:06:17.059Z,18.74
2018-09-27T18:08:45.353Z,18.44
2018-09-27T18:11:13.664Z,18.43
2018-09-27T18:13:42.020Z,18.41
2018-09-27T18:16:10.596Z,18.29
2018-09-27T18:18:39.208Z,18.27
2018-09-27T18:21:07.885Z,18.10
2018-09-27T18:23:36.441Z,17.88
2018-09-27T18:26:05.841Z,17.80
2018-09-27T18:28:34.247Z,17.71
2018-09-27T18:31:02.555Z,17.50
2018-09-27T18:33:30.868Z,17.46
2018-09-27T18:35:59.464Z,17.33
2018-09-27T18:38:28.027Z,17.14
2018-09-27T18:40:56.417Z,17.29
2018-09-27T18:43:25.124Z,17.20
2018-09-27T18:45:53.483Z,17.13
2018-09-27T18:48:22.103Z,17.17
2018-09-27T18:50:50.668Z,17.04
2018-09-27T18:53:18.932Z,16.97
2018-09-27T18:55:47.451Z,16.90
2018-09-27T18:58:15.792Z,16.91
2018-09-27T19:00:44.119Z,16.82
2018-09-27T19:03:13.315Z,16.76
2018-09-27T19:05:42.030Z,16.69
2018-09-27T19:08:10.506Z,16.49
2018-09-27T19:10:38.855Z,16.49
2018-09-27T19:13:07.338Z,16.48
2018-09-27T19:15:35.705Z,16.30
2018-09-27T19:18:04.910Z,16.27
2018-09-27T19:20:33.413Z,16.24
2018-09-27T19:23:01.734Z,16.32
2018-09-27T19:25:30.046Z,16.23
2018-09-27T19:27:58.595Z,16.24
2018-09-27T19:30:27.745Z,16.11
2018-09-27T19:32:56.399Z,15.89
2018-09-27T19:35:24.810Z,15.83
2018-09-27T19:37:53.501Z,15.93
2018-09-27T19:40:21.911Z,15.94
2018-09-27T19:42:50.975Z,15.92
2018-09-27T19:45:19.591Z,15.96
2018-09-27T19:47:48.198Z,15.84
2018-09-27T19:50:16.728Z,15.81
2018-09-27T19:52:45.637Z,15.69
2018-09-27T19:55:14.722Z,15.69
2018-09-27T19:57:43.104Z,15.82
2018-09-27T20:00:11.424Z,15.80
2018-09-27T20:02:41.325Z,15.79
2018-09-27T20:05:09.489Z,15.69
2018-09-27T20:07:38.251Z,15.79
2018-09-27T20:10:07.847Z,15.86
2018-09-27T20:12:36.142Z,15.81
2018-09-27T20:15:05.220Z,15.84
2018-09-27T20:17:34.042Z,15.63
2018-09-27T20:20:03.103Z,15.64
2018-09-27T20:22:31.783Z,15.58
2018-09-27T20:25:00.318Z,15.41
2018-09-27T20:27:29.190Z,15.29
2018-09-27T20:29:58.572Z,15.17
2018-09-27T20:32:28.064Z,15.15
2018-09-27T20:34:58.056Z,15.10
2018-09-27T20:37:26.814Z,15.12
2018-09-27T20:39:56.153Z,15.08
2018-09-27T20:42:24.441Z,15.08
2018-09-27T20:44:52.745Z,14.97
2018-09-27T20:47:21.128Z,14.90
2018-09-27T20:49:49.832Z,14.78
2018-09-27T20:52:18.521Z,14.77
2018-09-27T20:54:47.300Z,14.84
2018-09-27T20:57:15.581Z,14.74
2018-09-27T20:59:48.290Z,14.67
2018-09-27T21:02:16.489Z,14.64
2018-09-27T21:04:45.826Z,14.54
2018-09-27T21:07:14.172Z,14.47
2018-09-27T21:09:42.482Z,14.41
2018-09-27T21:12:10.788Z,14.42
2018-09-27T21:14:39.070Z,14.38
2018-09-27T21:17:07.545Z,14.35
2018-09-27T21:19:36.647Z,14.34
2018-09-27T21:22:04.984Z,14.25
2018-09-27T21:24:33.350Z,14.21
2018-09-27T21:27:01.586Z,14.27
2018-09-27T21:29:29.924Z,14.22
2018-09-27T21:31:58.204Z,14.13
2018-09-27T21:34:26.503Z,14.05
2018-09-27T21:36:55.141Z,14.05
2018-09-27T21:39:23.740Z,14.09
2018-09-27T21:41:52.726Z,14.06
2018-09-27T21:44:22.269Z,14.01
2018-09-27T21:46:50.784Z,13.93
2018-09-27T21:49:19.931Z,13.91
2018-09-27T21:51:48.720Z,13.81
2018-09-27T21:54:17.336Z,13.77
2018-09-27T21:56:46.049Z,13.66
2018-09-27T21:59:14.856Z,13.55
2018-09-27T22:01:43.436Z,13.49
2018-09-27T22:04:13.179Z,13.51
2018-09-27T22:06:41.613Z,13.49
2018-09-27T22:09:10.510Z,13.50
2018-09-27T22:11:40.055Z,13.53
2018-09-27T22:14:08.663Z,13.47
2018-09-27T22:16:36.975Z,13.51
2018-09-27T22:19:05.323Z,13.60
2018-09-27T22:21:33.677Z,13.56
2018-09-27T22:24:01.968Z,13.46
2018-09-27T22:26:30.202Z,13.49
2018-09-27T22:28:59.047Z,13.43
2018-09-27T22:31:27.360Z,13.41
2018-09-27T22:33:56.028Z,13.50
2018-09-27T22:36:24.866Z,13.50
2018-09-27T22:38:53.629Z,13.41
2018-09-27T22:41:22.257Z,13.36
2018-09-27T22:43:51.589Z,13.32
2018-09-27T22:46:20.508Z,13.28
2018-09-27T22:48:49.383Z,13.29
2018-09-27T22:51:17.678Z,13.34
2018-09-27T22:53:45.938Z,13.21
2018-09-27T22:56:14.289Z,13.19
2018-09-27T22:58:42.708Z,13.25
2018-09-27T23:01:11.578Z,13.32
2018-09-27T23:03:39.998Z,13.16
2018-09-27T23:06:08.320Z,13.00
2018-09-27T23:08:36.547Z,13.00
2018-09-27T23:11:04.876Z,13.10
2018-09-27T23:13:33.513Z,13.10
2018-09-27T23:16:02.053Z,13.08
2018-09-27T23:18:30.320Z,13.06
2018-09-27T23:20:59.387Z,13.02
2018-09-27T23:23:28.303Z,13.01
2018-09-27T23:25:56.918Z,13.00
2018-09-27T23:28:25.205Z,12.96
2018-09-27T23:30:53.485Z,12.92
2018-09-27T23:33:21.892Z,12.91
2018-09-27T23:35:50.223Z,12.84
2018-09-27T23:38:18.570Z,12.78
2018-09-27T23:40:46.917Z,12.70
2018-09-27T23:43:15.485Z,12.69
2018-09-27T23:45:44.081Z,12.75
2018-09-27T23:48:12.323Z,12.82
2018-09-27T23:50:40.661Z,12.76
2018-09-27T23:53:09.070Z,12.82
2018-09-27T23:55:37.341Z,12.87
2018-09-27T23:58:06.568Z,12.77
